createdAt,value
2023-04-14T00:01:44.746Z,6.32
2023-04-14T00:04:38.706Z,6.24
2023-04-14T00:07:32.770Z,6.17
2023-04-14T00:10:19.689Z,6.17
2023-04-14T00:12:52.884Z,6.18
2023-04-14T00:15:39.629Z,6.18
2023-04-14T00:18:12.872Z,6.19
2023-04-14T00:21:00.803Z,6.18
2023-04-14T00:23:33.765Z,6.18
2023-04-14T00:26:23.756Z,6.16
2023-04-14T00:29:03.739Z,6.16
2023-04-14T00:31:50.635Z,6.19
2023-04-14T00:34:30.680Z,6.18
2023-04-14T00:37:17.700Z,6.20
2023-04-14T00:39:50.830Z,6.21
2023-04-14T00:42:38.619Z,6.21
2023-04-14T00:45:12.009Z,6.20
2023-04-14T00:47:58.811Z,6.24
2023-04-14T00:50:31.838Z,6.26
2023-04-14T00:53:19.722Z,6.28
2023-04-14T00:55:52.902Z,6.30
2023-04-14T00:58:39.623Z,6.31
2023-04-14T01:01:15.645Z,6.31
2023-04-14T01:04:03.714Z,6.30
2023-04-14T01:06:37.982Z,6.27
2023-04-14T01:09:24.634Z,6.27
2023-04-14T01:12:18.662Z,6.26
2023-04-14T01:15:39.844Z,6.25
2023-04-14T01:18:15.887Z,6.24
2023-04-14T01:21:14.658Z,6.21
2023-04-14T01:24:04.674Z,6.18
2023-04-14T01:26:52.673Z,6.13
2023-04-14T01:30:08.638Z,6.07
2023-04-14T01:33:05.657Z,6.02
2023-04-14T01:36:04.636Z,5.97
2023-04-14T01:38:47.671Z,5.94
2023-04-14T01:41:36.663Z,5.90
2023-04-14T01:44:32.650Z,5.88
2023-04-14T01:47:21.770Z,5.84
2023-04-14T01:50:03.661Z,5.82
2023-04-14T01:53:00.673Z,5.77
2023-04-14T01:55:55.681Z,5.72
2023-04-14T01:58:43.667Z,5.68
2023-04-14T02:01:23.704Z,5.61
2023-04-14T02:04:11.710Z,5.53
2023-04-14T02:06:53.679Z,5.48
2023-04-14T02:09:41.655Z,5.43
2023-04-14T02:12:18.779Z,5.41
2023-04-14T02:15:07.666Z,5.39
2023-04-14T02:17:41.865Z,5.35
2023-04-14T02:20:28.679Z,5.30
2023-04-14T02:23:01.731Z,5.29
2023-04-14T02:26:02.673Z,5.27
2023-04-14T02:28:46.666Z,5.26
2023-04-14T02:31:43.684Z,5.27
2023-04-14T02:34:37.499Z,5.27
2023-04-14T02:37:17.784Z,5.23
2023-04-14T02:40:12.666Z,5.21
2023-04-14T02:42:49.762Z,5.19
2023-04-14T02:45:39.695Z,5.17
2023-04-14T02:48:27.676Z,5.14
2023-04-14T02:51:16.680Z,5.12
2023-04-14T02:53:50.821Z,5.11
2023-04-14T02:56:38.658Z,5.09
2023-04-14T02:59:13.160Z,5.05
2023-04-14T03:02:00.750Z,5.01
2023-04-14T03:04:44.787Z,4.99
2023-04-14T03:07:40.678Z,4.97
2023-04-14T03:10:29.702Z,4.93
2023-04-14T03:13:04.844Z,4.91
2023-04-14T03:15:52.767Z,4.88
2023-04-14T03:18:27.800Z,4.86
2023-04-14T03:21:14.709Z,4.86
2023-04-14T03:23:48.567Z,4.85
2023-04-14T03:26:37.755Z,4.80
2023-04-14T03:29:15.169Z,4.80
2023-04-14T03:32:04.707Z,4.80
2023-04-14T03:34:39.780Z,4.79
2023-04-14T03:37:32.699Z,4.78
2023-04-14T03:40:08.804Z,4.79
2023-04-14T03:42:56.698Z,4.79
2023-04-14T03:45:29.832Z,4.78
2023-04-14T03:48:19.703Z,4.77
2023-04-14T03:50:54.901Z,4.76
2023-04-14T03:53:44.697Z,4.76
2023-04-14T03:56:19.834Z,4.76
2023-04-14T03:59:09.576Z,4.73
2023-04-14T04:01:45.106Z,4.70
2023-04-14T04:04:32.777Z,4.69
2023-04-14T04:07:05.795Z,4.70
2023-04-14T04:09:54.713Z,4.69
2023-04-14T04:12:29.799Z,4.70
2023-04-14T04:15:17.735Z,4.71
2023-04-14T04:17:53.923Z,4.70
2023-04-14T04:20:44.720Z,4.72
2023-04-14T04:23:18.834Z,4.73
2023-04-14T04:26:05.705Z,4.76
2023-04-14T04:28:45.721Z,4.81
2023-04-14T04:31:34.747Z,4.86
2023-04-14T04:34:08.885Z,4.87
2023-04-14T04:36:56.718Z,4.92
2023-04-14T04:39:36.717Z,4.93
2023-04-14T04:42:30.722Z,4.95
2023-04-14T04:45:17.737Z,4.98
2023-04-14T04:47:50.899Z,5.02
2023-04-14T04:50:37.721Z,5.08
2023-04-14T04:53:12.339Z,5.10
2023-04-14T04:55:58.733Z,5.17
2023-04-14T04:58:31.846Z,5.22
2023-04-14T05:01:18.763Z,5.34
2023-04-14T05:03:52.843Z,5.50
2023-04-14T05:06:45.722Z,5.72
2023-04-14T05:09:25.723Z,5.95
2023-04-14T05:12:12.730Z,6.22
2023-04-14T05:14:45.990Z,6.45
2023-04-14T05:17:32.749Z,6.73
2023-04-14T05:20:05.854Z,6.96
2023-04-14T05:22:52.738Z,7.18
2023-04-14T05:25:25.905Z,7.41
2023-04-14T05:28:12.737Z,7.61
2023-04-14T05:30:46.072Z,7.75
2023-04-14T05:33:32.763Z,7.93
2023-04-14T05:36:06.014Z,8.09
2023-04-14T05:38:52.767Z,8.24
2023-04-14T05:41:25.999Z,8.36
2023-04-14T05:44:12.742Z,8.48
2023-04-14T05:46:52.818Z,8.57
2023-04-14T05:49:46.783Z,8.67
2023-04-14T05:52:40.759Z,8.81
2023-04-14T05:55:27.747Z,8.97
2023-04-14T05:58:07.746Z,9.14
2023-04-14T06:00:54.748Z,9.30
2023-04-14T06:03:28.457Z,9.48
2023-04-14T06:06:15.760Z,9.65
2023-04-14T06:08:55.792Z,9.82
2023-04-14T06:11:49.743Z,10.01
2023-04-14T06:14:36.782Z,10.19
2023-04-14T06:17:09.898Z,10.35
2023-04-14T06:19:56.766Z,10.54
2023-04-14T06:22:29.998Z,10.69
2023-04-14T06:25:17.777Z,10.81
2023-04-14T06:27:50.892Z,10.97
2023-04-14T06:30:40.746Z,11.18
2023-04-14T06:33:13.927Z,11.32
2023-04-14T06:36:01.790Z,11.57
2023-04-14T06:38:41.789Z,11.84
2023-04-14T06:41:35.780Z,12.12
2023-04-14T06:44:22.790Z,12.37
2023-04-14T06:46:57.243Z,12.48
2023-04-14T06:49:43.767Z,12.56
2023-04-14T06:52:23.781Z,12.70
2023-04-14T06:55:13.706Z,12.82
2023-04-14T06:57:53.823Z,12.97
2023-04-14T07:00:40.737Z,13.07
2023-04-14T07:03:21.830Z,13.03
2023-04-14T07:06:19.797Z,12.99
2023-04-14T07:09:13.785Z,13.04
2023-04-14T07:12:00.797Z,13.05
2023-04-14T07:14:33.873Z,13.08
2023-04-14T07:17:20.833Z,13.08
2023-04-14T07:19:53.936Z,13.07
2023-04-14T07:22:40.792Z,13.05
2023-04-14T07:25:20.790Z,13.07
2023-04-14T07:28:07.840Z,12.98
2023-04-14T07:30:47.811Z,13.01
2023-04-14T07:33:37.794Z,13.10
2023-04-14T07:36:10.994Z,13.11
2023-04-14T07:38:58.804Z,13.13
2023-04-14T07:41:32.898Z,13.11
2023-04-14T07:44:19.869Z,13.08
2023-04-14T07:46:52.893Z,13.18
2023-04-14T07:49:39.821Z,13.20
2023-04-14T07:52:19.813Z,13.34
2023-04-14T07:55:13.814Z,13.56
2023-04-14T07:58:00.812Z,13.80
2023-04-14T08:00:33.896Z,13.97
2023-04-14T08:03:20.968Z,14.13
2023-04-14T08:05:53.933Z,14.19
2023-04-14T08:08:41.812Z,14.29
2023-04-14T08:11:14.956Z,14.38
2023-04-14T08:14:01.906Z,14.46
2023-04-14T08:16:38.965Z,14.49
2023-04-14T08:19:25.861Z,14.54
2023-04-14T08:21:58.935Z,14.58
2023-04-14T08:24:45.847Z,14.60
2023-04-14T08:27:18.917Z,14.62
2023-04-14T08:30:05.830Z,14.58
2023-04-14T08:32:45.892Z,14.57
2023-04-14T08:35:35.149Z,14.86
2023-04-14T08:38:16.814Z,15.17
2023-04-14T08:41:10.823Z,15.20
2023-04-14T08:44:04.833Z,15.12
2023-04-14T08:46:57.823Z,15.21
2023-04-14T08:49:45.834Z,15.47
2023-04-14T08:52:40.919Z,15.28
2023-04-14T08:55:31.667Z,15.24
2023-04-14T08:58:07.485Z,15.29
2023-04-14T09:00:53.935Z,15.22
2023-04-14T09:03:27.116Z,15.08
2023-04-14T09:06:13.851Z,15.03
2023-04-14T09:08:53.841Z,14.92
2023-04-14T09:11:48.870Z,14.83
2023-04-14T09:14:42.873Z,14.91
2023-04-14T09:17:38.888Z,14.85
2023-04-14T09:20:36.484Z,14.80
2023-04-14T09:23:21.849Z,14.87
2023-04-14T09:26:08.862Z,14.81
2023-04-14T09:28:42.957Z,14.72
2023-04-14T09:31:30.948Z,14.68
2023-04-14T09:34:10.972Z,14.68
2023-04-14T09:37:17.862Z,14.79
2023-04-14T09:40:04.873Z,14.83
2023-04-14T09:42:47.142Z,14.84
2023-04-14T09:45:50.870Z,14.81
2023-04-14T09:48:24.960Z,14.75
2023-04-14T09:51:15.851Z,14.81
2023-04-14T09:53:49.307Z,14.81
2023-04-14T09:56:35.853Z,14.69
2023-04-14T09:59:16.853Z,14.67
2023-04-14T10:02:05.968Z,14.64
2023-04-14T10:04:45.905Z,14.60
2023-04-14T10:07:33.891Z,14.50
2023-04-14T10:10:22.883Z,14.36
2023-04-14T10:13:09.907Z,14.29
2023-04-14T10:15:43.498Z,14.24
2023-04-14T10:18:29.866Z,14.28
2023-04-14T10:21:02.986Z,14.38
2023-04-14T10:23:50.888Z,14.49
2023-04-14T10:26:26.334Z,14.58
2023-04-14T10:29:12.875Z,14.67
2023-04-14T10:31:56.030Z,14.81
2023-04-14T10:34:51.907Z,14.85
2023-04-14T10:37:39.890Z,15.07
2023-04-14T10:40:23.262Z,15.24
2023-04-14T10:43:18.888Z,15.45
2023-04-14T10:46:02.083Z,15.62
2023-04-14T10:48:53.893Z,15.90
2023-04-14T10:51:27.011Z,16.03
2023-04-14T10:54:31.922Z,16.21
2023-04-14T10:57:27.926Z,16.16
2023-04-14T11:00:33.910Z,16.15
2023-04-14T11:03:32.220Z,16.22
2023-04-14T11:06:26.009Z,16.23
2023-04-14T11:09:43.926Z,16.18
2023-04-14T11:12:34.946Z,16.22
2023-04-14T11:15:11.110Z,16.23
2023-04-14T11:17:57.937Z,16.29
2023-04-14T11:20:31.285Z,16.57
2023-04-14T11:23:20.941Z,16.67
2023-04-14T11:25:56.687Z,16.25
2023-04-14T11:28:44.965Z,16.24
2023-04-14T11:31:23.393Z,16.27
2023-04-14T11:34:15.923Z,16.32
2023-04-14T11:36:49.015Z,16.24
2023-04-14T11:39:36.934Z,16.21
2023-04-14T11:42:11.049Z,16.14
2023-04-14T11:45:06.962Z,16.00
2023-04-14T11:47:40.118Z,15.91
2023-04-14T11:50:27.014Z,15.86
2023-04-14T11:53:08.406Z,15.82
2023-04-14T11:55:56.933Z,15.75
2023-04-14T11:58:39.961Z,15.66
2023-04-14T12:01:36.918Z,15.61
2023-04-14T12:04:31.050Z,15.61
2023-04-14T12:07:25.947Z,15.60
2023-04-14T12:10:14.004Z,15.60
2023-04-14T12:12:47.048Z,15.56
2023-04-14T12:15:34.942Z,15.58
2023-04-14T12:18:09.116Z,15.58
2023-04-14T12:21:10.818Z,15.60
2023-04-14T12:23:48.394Z,15.63
2023-04-14T12:26:34.998Z,15.64
2023-04-14T12:29:16.960Z,15.68
2023-04-14T12:32:04.049Z,15.67
2023-04-14T12:34:37.053Z,15.56
2023-04-14T12:37:23.982Z,15.47
2023-04-14T12:40:07.950Z,15.42
2023-04-14T12:43:03.960Z,15.37
2023-04-14T12:45:59.958Z,15.30
2023-04-14T12:48:58.983Z,15.27
2023-04-14T12:51:52.955Z,15.28
2023-04-14T12:54:59.017Z,15.34
2023-04-14T12:57:41.982Z,15.40
2023-04-14T13:00:37.019Z,15.50
2023-04-14T13:03:24.060Z,15.64
2023-04-14T13:06:10.973Z,15.73
2023-04-14T13:09:03.240Z,15.79
2023-04-14T13:11:43.980Z,15.82
2023-04-14T13:14:39.451Z,15.82
2023-04-14T13:17:33.061Z,15.75
2023-04-14T13:20:19.967Z,15.73
2023-04-14T13:23:00.119Z,15.72
2023-04-14T13:25:53.970Z,15.67
2023-04-14T13:28:40.978Z,15.58
2023-04-14T13:31:14.090Z,15.54
2023-04-14T13:34:00.994Z,15.48
2023-04-14T13:36:34.260Z,15.44
2023-04-14T13:39:20.985Z,15.40
2023-04-14T13:41:54.093Z,15.35
2023-04-14T13:44:41.986Z,15.30
2023-04-14T13:47:16.766Z,15.25
2023-04-14T13:50:03.009Z,15.19
2023-04-14T13:52:42.988Z,15.13
2023-04-14T13:55:30.010Z,15.11
2023-04-14T13:58:03.150Z,15.10
2023-04-14T14:00:50.004Z,15.06
2023-04-14T14:03:23.315Z,15.01
2023-04-14T14:06:16.985Z,14.96
2023-04-14T14:09:11.078Z,14.92
2023-04-14T14:11:46.600Z,14.86
2023-04-14T14:14:32.999Z,14.80
2023-04-14T14:17:13.017Z,14.74
2023-04-14T14:20:00.019Z,14.67
2023-04-14T14:22:33.139Z,14.59
2023-04-14T14:25:21.257Z,14.50
2023-04-14T14:28:03.020Z,14.44
2023-04-14T14:30:57.060Z,14.36
2023-04-14T14:33:45.026Z,14.26
2023-04-14T14:36:18.108Z,14.17
2023-04-14T14:39:05.048Z,14.12
2023-04-14T14:41:38.213Z,14.07
2023-04-14T14:44:25.029Z,14.02
2023-04-14T14:47:06.191Z,13.95
2023-04-14T14:50:01.204Z,13.86
2023-04-14T14:52:57.067Z,13.78
2023-04-14T14:55:50.985Z,13.71
2023-04-14T14:58:38.031Z,13.66
2023-04-14T15:01:17.979Z,13.62
2023-04-14T15:04:05.263Z,13.56
2023-04-14T15:06:45.991Z,13.53
2023-04-14T15:09:39.984Z,13.51
2023-04-14T15:12:34.107Z,13.46
2023-04-14T15:15:28.023Z,13.45
2023-04-14T15:18:15.014Z,13.44
2023-04-14T15:20:55.048Z,13.45
2023-04-14T15:23:51.043Z,13.45
2023-04-14T15:26:38.093Z,13.43
2023-04-14T15:29:11.175Z,13.39
2023-04-14T15:31:58.138Z,13.32
2023-04-14T15:34:31.189Z,13.28
2023-04-14T15:37:18.078Z,13.25
2023-04-14T15:39:51.413Z,13.28
2023-04-14T15:42:38.078Z,13.22
2023-04-14T15:45:19.088Z,13.15
2023-04-14T15:48:13.068Z,13.08
2023-04-14T15:51:00.055Z,13.00
2023-04-14T15:53:33.258Z,12.97
2023-04-14T15:56:20.074Z,12.94
2023-04-14T15:59:00.085Z,12.86
2023-04-14T16:01:54.280Z,12.80
2023-04-14T16:04:41.118Z,12.72
2023-04-14T16:07:14.311Z,12.66
2023-04-14T16:10:01.161Z,12.61
2023-04-14T16:12:42.092Z,12.53
2023-04-14T16:15:29.066Z,12.44
2023-04-14T16:18:02.750Z,12.35
2023-04-14T16:20:49.084Z,12.27
2023-04-14T16:23:29.093Z,12.20
2023-04-14T16:26:23.093Z,12.09
2023-04-14T16:29:10.093Z,11.99
2023-04-14T16:31:50.156Z,11.91
2023-04-14T16:34:44.095Z,11.83
2023-04-14T16:37:33.106Z,11.76
2023-04-14T16:40:13.104Z,11.70
2023-04-14T16:43:00.091Z,11.62
2023-04-14T16:45:33.365Z,11.57
2023-04-14T16:48:20.126Z,11.50
2023-04-14T16:51:00.151Z,11.45
2023-04-14T16:53:54.113Z,11.41
2023-04-14T16:56:42.117Z,11.34
2023-04-14T16:59:15.197Z,11.27
2023-04-14T17:02:02.290Z,11.23
2023-04-14T17:04:36.517Z,11.18
2023-04-14T17:07:23.074Z,11.16
2023-04-14T17:10:03.116Z,11.13
2023-04-14T17:12:50.101Z,11.05
2023-04-14T17:15:23.738Z,10.97
2023-04-14T17:18:10.106Z,10.94
2023-04-14T17:20:46.309Z,10.90
2023-04-14T17:23:34.174Z,10.85
2023-04-14T17:26:07.244Z,10.83
2023-04-14T17:28:54.109Z,10.80
2023-04-14T17:31:34.131Z,10.76
2023-04-14T17:34:28.089Z,10.71
2023-04-14T17:37:22.092Z,10.71
2023-04-14T17:40:17.121Z,10.69
2023-04-14T17:43:04.117Z,10.67
2023-04-14T17:45:37.249Z,10.64
2023-04-14T17:48:24.079Z,10.65
2023-04-14T17:50:57.217Z,10.63
2023-04-14T17:53:44.092Z,10.61
2023-04-14T17:56:17.214Z,10.58
2023-04-14T17:59:05.119Z,10.56
2023-04-14T18:01:45.302Z,10.53
2023-04-14T18:04:39.119Z,10.48
2023-04-14T18:07:33.132Z,10.45
2023-04-14T18:10:20.119Z,10.38
2023-04-14T18:12:53.298Z,10.35
2023-04-14T18:15:40.137Z,10.31
2023-04-14T18:18:13.215Z,10.29
2023-04-14T18:21:00.146Z,10.27
2023-04-14T18:23:40.122Z,10.24
2023-04-14T18:26:34.115Z,10.19
2023-04-14T18:29:21.139Z,10.16
2023-04-14T18:31:55.149Z,10.14
2023-04-14T18:34:42.144Z,10.12
2023-04-14T18:37:15.860Z,10.13
2023-04-14T18:40:03.202Z,10.10
2023-04-14T18:42:43.134Z,10.08
2023-04-14T18:45:37.124Z,10.04
2023-04-14T18:48:24.141Z,10.01
2023-04-14T18:51:08.154Z,10.00
2023-04-14T18:53:55.161Z,9.99
2023-04-14T18:56:28.516Z,9.96
2023-04-14T18:59:16.133Z,9.94
2023-04-14T19:01:49.346Z,9.94
2023-04-14T19:04:37.156Z,9.95
2023-04-14T19:07:10.681Z,9.95
2023-04-14T19:09:57.156Z,9.96
2023-04-14T19:12:31.930Z,9.92
2023-04-14T19:15:20.265Z,9.92
2023-04-14T19:18:00.227Z,9.90
2023-04-14T19:20:47.107Z,9.86
2023-04-14T19:23:21.014Z,9.84
2023-04-14T19:26:09.135Z,9.84
2023-04-14T19:28:49.160Z,9.82
2023-04-14T19:31:43.191Z,9.82
2023-04-14T19:34:37.206Z,9.80
2023-04-14T19:37:24.161Z,9.74
2023-04-14T19:40:04.183Z,9.73
2023-04-14T19:42:51.167Z,9.71
2023-04-14T19:45:24.250Z,9.70
2023-04-14T19:48:22.745Z,9.67
2023-04-14T19:50:59.299Z,9.62
2023-04-14T19:53:46.197Z,9.64
2023-04-14T19:56:19.842Z,9.58
2023-04-14T19:59:06.214Z,9.58
2023-04-14T20:01:39.284Z,9.56
2023-04-14T20:04:27.315Z,9.53
2023-04-14T20:07:07.178Z,9.53
2023-04-14T20:10:01.173Z,9.50
2023-04-14T20:12:48.187Z,9.47
2023-04-14T20:15:21.276Z,9.47
2023-04-14T20:18:08.178Z,9.45
2023-04-14T20:20:48.180Z,9.42
2023-04-14T20:23:42.161Z,9.31
2023-04-14T20:26:29.196Z,9.30
2023-04-14T20:29:09.196Z,9.24
2023-04-14T20:31:56.190Z,9.25
2023-04-14T20:34:29.494Z,9.22
2023-04-14T20:37:16.168Z,9.18
2023-04-14T20:39:49.764Z,9.14
2023-04-14T20:42:36.184Z,9.11
2023-04-14T20:45:09.447Z,9.02
2023-04-14T20:47:56.227Z,8.92
2023-04-14T20:50:36.178Z,8.90
2023-04-14T20:53:33.225Z,8.82
2023-04-14T20:56:20.194Z,8.77
2023-04-14T20:58:53.316Z,8.70
2023-04-14T21:01:40.222Z,8.66
2023-04-14T21:04:20.353Z,8.59
2023-04-14T21:07:14.197Z,8.59
2023-04-14T21:10:08.194Z,8.50
2023-04-14T21:15:31.331Z,8.46
2023-04-14T21:16:16.308Z,8.41
2023-04-14T21:19:04.629Z,8.39
2023-04-14T21:21:38.283Z,8.41
2023-04-14T21:24:25.221Z,8.42
2023-04-14T21:26:58.347Z,8.41
2023-04-14T21:29:45.218Z,8.38
2023-04-14T21:32:18.545Z,8.37
2023-04-14T21:35:05.204Z,8.39
2023-04-14T21:37:39.765Z,8.41
2023-04-14T21:40:27.218Z,8.41
2023-04-14T21:43:00.847Z,8.40
2023-04-14T21:45:47.282Z,8.39
2023-04-14T21:48:27.227Z,8.39
2023-04-14T21:51:14.283Z,8.39
2023-04-14T21:53:47.357Z,8.40
2023-04-14T21:56:34.323Z,8.41
2023-04-14T21:59:14.246Z,8.43
2023-04-14T22:02:01.386Z,8.44
2023-04-14T22:04:41.312Z,8.41
2023-04-14T22:07:28.224Z,8.42
2023-04-14T22:10:08.258Z,8.43
2023-04-14T22:13:02.268Z,8.43
2023-04-14T22:15:50.310Z,8.37
2023-04-14T22:18:23.360Z,8.36
2023-04-14T22:21:11.274Z,8.32
2023-04-14T22:23:51.243Z,8.25
2023-04-14T22:26:45.234Z,8.22
2023-04-14T22:29:32.237Z,8.15
2023-04-14T22:32:05.482Z,8.12
2023-04-14T22:34:52.294Z,8.10
2023-04-14T22:37:25.327Z,8.04
2023-04-14T22:40:13.242Z,7.95
2023-04-14T22:42:46.612Z,7.88
2023-04-14T22:45:33.258Z,7.83
2023-04-14T22:48:07.050Z,7.80
2023-04-14T22:50:54.363Z,7.81
2023-04-14T22:53:34.350Z,7.73
2023-04-14T22:56:28.265Z,7.74
2023-04-14T22:59:24.212Z,7.76
2023-04-14T23:02:13.509Z,7.76
2023-04-14T23:04:53.428Z,7.74
2023-04-14T23:07:47.259Z,7.74
2023-04-14T23:10:41.317Z,7.69
2023-04-14T23:13:28.253Z,7.59
2023-04-14T23:16:01.558Z,7.50
2023-04-14T23:18:48.248Z,7.48
2023-04-14T23:21:22.563Z,7.43
2023-04-14T23:24:09.267Z,7.38
2023-04-14T23:26:42.344Z,7.36
2023-04-14T23:29:29.280Z,7.32
2023-04-14T23:32:02.432Z,7.29
2023-04-14T23:34:49.307Z,7.29
2023-04-14T23:37:29.312Z,7.29
2023-04-14T23:40:17.260Z,7.25
2023-04-14T23:42:57.280Z,7.24
2023-04-14T23:45:44.259Z,7.26
2023-04-14T23:48:17.405Z,7.30
2023-04-14T23:51:20.116Z,7.31
2023-04-14T23:54:01.287Z,7.32
2023-04-14T23:56:48.282Z,7.30
2023-04-14T23:59:21.943Z,7.24
